sensor_id;sensor_type;location;lat;lon;timestamp;P1;durP1;ratioP1;P2;durP2;ratioP2
9156;SDS011;4613;48.392;9.998;2023-04-06T00:00:55;4.22;;;3.00;;
9156;SDS011;4613;48.392;9.998;2023-04-06T00:03:44;3.38;;;2.70;;
9156;SDS011;4613;48.392;9.998;2023-04-06T00:06:33;5.38;;;3.00;;
9156;SDS011;4613;48.392;9.998;2023-04-06T00:09:22;3.22;;;2.80;;
9156;SDS011;4613;48.392;9.998;2023-04-06T00:12:12;4.63;;;3.42;;
9156;SDS011;4613;48.392;9.998;2023-04-06T00:15:01;4.10;;;3.00;;
9156;SDS011;4613;48.392;9.998;2023-04-06T00:17:53;10.77;;;3.50;;
9156;SDS011;4613;48.392;9.998;2023-04-06T00:20:43;4.68;;;3.05;;
9156;SDS011;4613;48.392;9.998;2023-04-06T00:23:32;3.92;;;2.92;;
9156;SDS011;4613;48.392;9.998;2023-04-06T00:26:21;4.20;;;2.85;;
9156;SDS011;4613;48.392;9.998;2023-04-06T00:29:12;6.20;;;2.83;;
9156;SDS011;4613;48.392;9.998;2023-04-06T00:32:02;5.03;;;3.15;;
9156;SDS011;4613;48.392;9.998;2023-04-06T00:34:51;12.63;;;3.80;;
9156;SDS011;4613;48.392;9.998;2023-04-06T00:37:41;4.45;;;3.00;;
9156;SDS011;4613;48.392;9.998;2023-04-06T00:40:30;5.47;;;3.53;;
9156;SDS011;4613;48.392;9.998;2023-04-06T00:43:21;5.32;;;3.00;;
9156;SDS011;4613;48.392;9.998;2023-04-06T00:46:10;4.15;;;2.78;;
9156;SDS011;4613;48.392;9.998;2023-04-06T00:48:59;4.93;;;3.20;;
9156;SDS011;4613;48.392;9.998;2023-04-06T00:51:49;5.75;;;3.08;;
9156;SDS011;4613;48.392;9.998;2023-04-06T00:54:38;7.00;;;2.65;;
9156;SDS011;4613;48.392;9.998;2023-04-06T00:57:28;5.90;;;3.20;;
9156;SDS011;4613;48.392;9.998;2023-04-06T01:00:19;4.28;;;3.08;;
9156;SDS011;4613;48.392;9.998;2023-04-06T01:03:10;4.40;;;2.95;;
9156;SDS011;4613;48.392;9.998;2023-04-06T01:06:04;6.03;;;2.92;;
9156;SDS011;4613;48.392;9.998;2023-04-06T01:08:59;4.32;;;2.70;;
9156;SDS011;4613;48.392;9.998;2023-04-06T01:11:50;5.13;;;2.95;;
9156;SDS011;4613;48.392;9.998;2023-04-06T01:14:43;3.67;;;2.30;;
9156;SDS011;4613;48.392;9.998;2023-04-06T01:17:32;3.25;;;2.45;;
9156;SDS011;4613;48.392;9.998;2023-04-06T01:20:29;3.70;;;2.50;;
9156;SDS011;4613;48.392;9.998;2023-04-06T01:23:21;2.75;;;2.40;;
9156;SDS011;4613;48.392;9.998;2023-04-06T01:26:10;4.45;;;3.17;;
9156;SDS011;4613;48.392;9.998;2023-04-06T01:29:01;6.80;;;2.45;;
9156;SDS011;4613;48.392;9.998;2023-04-06T01:31:52;5.50;;;2.83;;
9156;SDS011;4613;48.392;9.998;2023-04-06T01:34:41;5.90;;;3.42;;
9156;SDS011;4613;48.392;9.998;2023-04-06T01:37:31;5.72;;;2.78;;
9156;SDS011;4613;48.392;9.998;2023-04-06T01:40:23;3.88;;;2.92;;
9156;SDS011;4613;48.392;9.998;2023-04-06T01:43:14;4.63;;;3.00;;
9156;SDS011;4613;48.392;9.998;2023-04-06T01:46:18;9.80;;;3.60;;
9156;SDS011;4613;48.392;9.998;2023-04-06T01:49:08;5.95;;;3.17;;
9156;SDS011;4613;48.392;9.998;2023-04-06T01:51:59;4.70;;;3.05;;
9156;SDS011;4613;48.392;9.998;2023-04-06T01:54:48;4.68;;;3.13;;
9156;SDS011;4613;48.392;9.998;2023-04-06T01:57:44;5.40;;;3.15;;
9156;SDS011;4613;48.392;9.998;2023-04-06T02:00:40;4.07;;;2.72;;
9156;SDS011;4613;48.392;9.998;2023-04-06T02:03:29;5.22;;;3.08;;
9156;SDS011;4613;48.392;9.998;2023-04-06T02:06:27;5.60;;;3.03;;
9156;SDS011;4613;48.392;9.998;2023-04-06T02:09:16;5.00;;;3.30;;
9156;SDS011;4613;48.392;9.998;2023-04-06T02:12:05;4.75;;;3.20;;
9156;SDS011;4613;48.392;9.998;2023-04-06T02:14:57;5.32;;;3.35;;
9156;SDS011;4613;48.392;9.998;2023-04-06T02:17:46;4.78;;;3.45;;
9156;SDS011;4613;48.392;9.998;2023-04-06T02:20:36;6.38;;;3.40;;
9156;SDS011;4613;48.392;9.998;2023-04-06T02:23:25;6.57;;;3.70;;
9156;SDS011;4613;48.392;9.998;2023-04-06T02:26:15;5.82;;;3.58;;
9156;SDS011;4613;48.392;9.998;2023-04-06T02:29:05;5.03;;;3.55;;
9156;SDS011;4613;48.392;9.998;2023-04-06T02:34:42;6.32;;;3.60;;
9156;SDS011;4613;48.392;9.998;2023-04-06T02:37:32;5.78;;;3.95;;
9156;SDS011;4613;48.392;9.998;2023-04-06T02:40:22;8.43;;;3.50;;
9156;SDS011;4613;48.392;9.998;2023-04-06T02:43:12;8.65;;;3.05;;
9156;SDS011;4613;48.392;9.998;2023-04-06T02:46:02;6.93;;;3.58;;
9156;SDS011;4613;48.392;9.998;2023-04-06T02:48:55;4.03;;;2.85;;
9156;SDS011;4613;48.392;9.998;2023-04-06T02:51:45;5.13;;;3.17;;
9156;SDS011;4613;48.392;9.998;2023-04-06T02:54:43;3.78;;;2.53;;
9156;SDS011;4613;48.392;9.998;2023-04-06T02:57:33;3.90;;;2.97;;
9156;SDS011;4613;48.392;9.998;2023-04-06T03:00:23;3.42;;;2.90;;
9156;SDS011;4613;48.392;9.998;2023-04-06T03:03:12;4.32;;;3.05;;
9156;SDS011;4613;48.392;9.998;2023-04-06T03:06:07;4.10;;;2.95;;
9156;SDS011;4613;48.392;9.998;2023-04-06T03:09:02;4.20;;;2.80;;
9156;SDS011;4613;48.392;9.998;2023-04-06T03:11:54;6.18;;;3.25;;
9156;SDS011;4613;48.392;9.998;2023-04-06T03:14:45;5.55;;;2.92;;
9156;SDS011;4613;48.392;9.998;2023-04-06T03:17:35;5.25;;;3.20;;
9156;SDS011;4613;48.392;9.998;2023-04-06T03:20:28;3.88;;;2.72;;
9156;SDS011;4613;48.392;9.998;2023-04-06T03:23:18;4.82;;;2.83;;
9156;SDS011;4613;48.392;9.998;2023-04-06T03:26:12;4.53;;;2.88;;
9156;SDS011;4613;48.392;9.998;2023-04-06T03:29:01;4.47;;;3.30;;
9156;SDS011;4613;48.392;9.998;2023-04-06T03:31:54;5.20;;;3.10;;
9156;SDS011;4613;48.392;9.998;2023-04-06T03:34:59;4.97;;;2.90;;
9156;SDS011;4613;48.392;9.998;2023-04-06T03:37:48;4.38;;;3.10;;
9156;SDS011;4613;48.392;9.998;2023-04-06T03:40:37;4.82;;;2.97;;
9156;SDS011;4613;48.392;9.998;2023-04-06T03:43:27;3.42;;;2.90;;
9156;SDS011;4613;48.392;9.998;2023-04-06T03:46:16;4.90;;;3.42;;
9156;SDS011;4613;48.392;9.998;2023-04-06T03:49:06;3.47;;;2.58;;
9156;SDS011;4613;48.392;9.998;2023-04-06T03:51:56;4.50;;;3.13;;
9156;SDS011;4613;48.392;9.998;2023-04-06T03:54:45;4.25;;;2.63;;
9156;SDS011;4613;48.392;9.998;2023-04-06T03:57:34;4.18;;;2.65;;
9156;SDS011;4613;48.392;9.998;2023-04-06T04:00:23;5.47;;;2.72;;
9156;SDS011;4613;48.392;9.998;2023-04-06T04:03:13;4.15;;;2.47;;
9156;SDS011;4613;48.392;9.998;2023-04-06T04:06:02;5.55;;;2.95;;
9156;SDS011;4613;48.392;9.998;2023-04-06T04:09:02;3.35;;;2.72;;
9156;SDS011;4613;48.392;9.998;2023-04-06T04:11:51;4.18;;;2.55;;
9156;SDS011;4613;48.392;9.998;2023-04-06T04:14:41;6.20;;;3.10;;
9156;SDS011;4613;48.392;9.998;2023-04-06T04:17:30;4.30;;;2.70;;
9156;SDS011;4613;48.392;9.998;2023-04-06T04:20:20;4.22;;;3.17;;
9156;SDS011;4613;48.392;9.998;2023-04-06T04:23:09;4.15;;;2.80;;
9156;SDS011;4613;48.392;9.998;2023-04-06T04:25:58;3.63;;;2.45;;
9156;SDS011;4613;48.392;9.998;2023-04-06T04:28:48;6.28;;;3.10;;
9156;SDS011;4613;48.392;9.998;2023-04-06T04:31:37;4.80;;;2.60;;
9156;SDS011;4613;48.392;9.998;2023-04-06T04:34:33;6.50;;;3.20;;
9156;SDS011;4613;48.392;9.998;2023-04-06T04:37:22;4.03;;;2.70;;
9156;SDS011;4613;48.392;9.998;2023-04-06T04:43:49;4.18;;;2.72;;
9156;SDS011;4613;48.392;9.998;2023-04-06T04:46:44;3.40;;;2.70;;
9156;SDS011;4613;48.392;9.998;2023-04-06T04:49:37;4.00;;;2.58;;
9156;SDS011;4613;48.392;9.998;2023-04-06T04:52:27;4.40;;;3.13;;
9156;SDS011;4613;48.392;9.998;2023-04-06T04:55:33;5.30;;;3.25;;
9156;SDS011;4613;48.392;9.998;2023-04-06T04:58:24;7.10;;;3.10;;
9156;SDS011;4613;48.392;9.998;2023-04-06T05:01:18;3.20;;;2.80;;
9156;SDS011;4613;48.392;9.998;2023-04-06T05:04:09;3.75;;;2.88;;
9156;SDS011;4613;48.392;9.998;2023-04-06T05:07:05;3.58;;;2.90;;
9156;SDS011;4613;48.392;9.998;2023-04-06T05:09:58;4.53;;;3.38;;
9156;SDS011;4613;48.392;9.998;2023-04-06T05:12:51;4.43;;;2.92;;
9156;SDS011;4613;48.392;9.998;2023-04-06T05:15:41;4.32;;;2.80;;
9156;SDS011;4613;48.392;9.998;2023-04-06T05:18:41;4.18;;;2.78;;
9156;SDS011;4613;48.392;9.998;2023-04-06T05:21:31;4.07;;;2.80;;
9156;SDS011;4613;48.392;9.998;2023-04-06T05:24:28;3.85;;;2.92;;
9156;SDS011;4613;48.392;9.998;2023-04-06T05:27:17;4.10;;;2.80;;
9156;SDS011;4613;48.392;9.998;2023-04-06T05:30:09;4.47;;;2.88;;
9156;SDS011;4613;48.392;9.998;2023-04-06T05:33:06;3.80;;;2.67;;
9156;SDS011;4613;48.392;9.998;2023-04-06T05:36:09;4.07;;;2.88;;
9156;SDS011;4613;48.392;9.998;2023-04-06T05:39:05;3.85;;;2.80;;
9156;SDS011;4613;48.392;9.998;2023-04-06T05:42:07;5.75;;;3.63;;
9156;SDS011;4613;48.392;9.998;2023-04-06T05:45:29;5.70;;;3.28;;
9156;SDS011;4613;48.392;9.998;2023-04-06T05:48:20;5.15;;;3.20;;
9156;SDS011;4613;48.392;9.998;2023-04-06T05:51:10;6.63;;;3.60;;
9156;SDS011;4613;48.392;9.998;2023-04-06T05:54:09;4.93;;;2.90;;
9156;SDS011;4613;48.392;9.998;2023-04-06T05:57:01;4.90;;;3.40;;
9156;SDS011;4613;48.392;9.998;2023-04-06T05:59:51;8.25;;;4.07;;
9156;SDS011;4613;48.392;9.998;2023-04-06T06:02:43;4.65;;;3.60;;
9156;SDS011;4613;48.392;9.998;2023-04-06T06:05:39;7.80;;;4.80;;
9156;SDS011;4613;48.392;9.998;2023-04-06T06:08:34;7.55;;;3.80;;
9156;SDS011;4613;48.392;9.998;2023-04-06T06:11:26;7.03;;;4.20;;
9156;SDS011;4613;48.392;9.998;2023-04-06T06:14:16;7.20;;;3.67;;
9156;SDS011;4613;48.392;9.998;2023-04-06T06:17:06;9.27;;;4.47;;
9156;SDS011;4613;48.392;9.998;2023-04-06T06:19:56;6.57;;;4.20;;
9156;SDS011;4613;48.392;9.998;2023-04-06T06:22:46;7.30;;;3.80;;
9156;SDS011;4613;48.392;9.998;2023-04-06T06:25:40;6.40;;;3.58;;
9156;SDS011;4613;48.392;9.998;2023-04-06T06:28:29;12.63;;;4.55;;
9156;SDS011;4613;48.392;9.998;2023-04-06T06:31:19;6.43;;;4.10;;
9156;SDS011;4613;48.392;9.998;2023-04-06T06:34:11;7.47;;;3.58;;
9156;SDS011;4613;48.392;9.998;2023-04-06T06:37:02;5.78;;;3.63;;
9156;SDS011;4613;48.392;9.998;2023-04-06T06:39:52;5.07;;;3.88;;
9156;SDS011;4613;48.392;9.998;2023-04-06T06:42:43;6.97;;;4.18;;
9156;SDS011;4613;48.392;9.998;2023-04-06T06:45:50;5.50;;;3.83;;
9156;SDS011;4613;48.392;9.998;2023-04-06T06:48:39;6.10;;;3.85;;
9156;SDS011;4613;48.392;9.998;2023-04-06T06:51:29;8.18;;;4.28;;
9156;SDS011;4613;48.392;9.998;2023-04-06T06:54:19;6.15;;;4.68;;
9156;SDS011;4613;48.392;9.998;2023-04-06T06:57:08;7.43;;;3.75;;
9156;SDS011;4613;48.392;9.998;2023-04-06T06:59:58;7.03;;;4.22;;
9156;SDS011;4613;48.392;9.998;2023-04-06T07:02:52;7.30;;;4.35;;
9156;SDS011;4613;48.392;9.998;2023-04-06T07:05:45;8.27;;;4.22;;
9156;SDS011;4613;48.392;9.998;2023-04-06T07:08:39;7.47;;;4.28;;
9156;SDS011;4613;48.392;9.998;2023-04-06T07:11:28;6.88;;;4.13;;
9156;SDS011;4613;48.392;9.998;2023-04-06T07:14:18;7.57;;;4.95;;
9156;SDS011;4613;48.392;9.998;2023-04-06T07:17:08;9.07;;;5.72;;
9156;SDS011;4613;48.392;9.998;2023-04-06T07:19:59;10.68;;;4.88;;
9156;SDS011;4613;48.392;9.998;2023-04-06T07:22:49;7.75;;;4.65;;
9156;SDS011;4613;48.392;9.998;2023-04-06T07:25:38;8.80;;;4.80;;
9156;SDS011;4613;48.392;9.998;2023-04-06T07:28:27;6.80;;;4.43;;
9156;SDS011;4613;48.392;9.998;2023-04-06T07:31:17;9.52;;;4.90;;
9156;SDS011;4613;48.392;9.998;2023-04-06T07:34:07;14.32;;;6.07;;
9156;SDS011;4613;48.392;9.998;2023-04-06T07:36:57;11.65;;;6.68;;
9156;SDS011;4613;48.392;9.998;2023-04-06T07:39:47;15.32;;;6.97;;
9156;SDS011;4613;48.392;9.998;2023-04-06T07:42:37;11.32;;;6.75;;
9156;SDS011;4613;48.392;9.998;2023-04-06T07:45:28;11.63;;;5.40;;
9156;SDS011;4613;48.392;9.998;2023-04-06T07:48:19;9.07;;;5.27;;
9156;SDS011;4613;48.392;9.998;2023-04-06T07:51:08;5.97;;;4.30;;
9156;SDS011;4613;48.392;9.998;2023-04-06T07:54:03;6.37;;;4.57;;
9156;SDS011;4613;48.392;9.998;2023-04-06T07:56:53;8.40;;;5.17;;
9156;SDS011;4613;48.392;9.998;2023-04-06T07:59:42;7.23;;;4.87;;
9156;SDS011;4613;48.392;9.998;2023-04-06T08:02:31;5.83;;;4.30;;
9156;SDS011;4613;48.392;9.998;2023-04-06T08:05:21;7.00;;;4.13;;
9156;SDS011;4613;48.392;9.998;2023-04-06T08:08:10;6.30;;;4.40;;
9156;SDS011;4613;48.392;9.998;2023-04-06T08:11:00;6.87;;;4.03;;
9156;SDS011;4613;48.392;9.998;2023-04-06T08:13:51;6.73;;;4.10;;
9156;SDS011;4613;48.392;9.998;2023-04-06T08:16:41;6.80;;;4.00;;
9156;SDS011;4613;48.392;9.998;2023-04-06T08:19:30;6.13;;;4.23;;
9156;SDS011;4613;48.392;9.998;2023-04-06T08:22:19;6.77;;;4.30;;
9156;SDS011;4613;48.392;9.998;2023-04-06T08:25:09;5.70;;;4.17;;
9156;SDS011;4613;48.392;9.998;2023-04-06T08:27:58;5.67;;;4.20;;
9156;SDS011;4613;48.392;9.998;2023-04-06T08:30:48;6.67;;;4.40;;
9156;SDS011;4613;48.392;9.998;2023-04-06T08:33:37;6.63;;;3.67;;
9156;SDS011;4613;48.392;9.998;2023-04-06T08:36:27;5.47;;;3.90;;
9156;SDS011;4613;48.392;9.998;2023-04-06T08:39:17;6.43;;;3.97;;
9156;SDS011;4613;48.392;9.998;2023-04-06T08:42:16;5.40;;;3.90;;
9156;SDS011;4613;48.392;9.998;2023-04-06T08:45:10;6.60;;;3.83;;
9156;SDS011;4613;48.392;9.998;2023-04-06T08:48:01;5.33;;;3.93;;
9156;SDS011;4613;48.392;9.998;2023-04-06T08:50:52;6.97;;;4.10;;
9156;SDS011;4613;48.392;9.998;2023-04-06T08:53:43;6.93;;;4.57;;
9156;SDS011;4613;48.392;9.998;2023-04-06T08:56:33;6.50;;;4.03;;
9156;SDS011;4613;48.392;9.998;2023-04-06T08:59:27;5.30;;;3.73;;
9156;SDS011;4613;48.392;9.998;2023-04-06T09:02:18;7.57;;;4.57;;
9156;SDS011;4613;48.392;9.998;2023-04-06T09:05:08;6.37;;;4.37;;
9156;SDS011;4613;48.392;9.998;2023-04-06T09:07:58;7.00;;;3.57;;
9156;SDS011;4613;48.392;9.998;2023-04-06T09:10:48;5.93;;;4.10;;
9156;SDS011;4613;48.392;9.998;2023-04-06T09:13:45;5.83;;;3.70;;
9156;SDS011;4613;48.392;9.998;2023-04-06T09:16:42;5.60;;;4.00;;
9156;SDS011;4613;48.392;9.998;2023-04-06T09:19:33;9.47;;;4.13;;
9156;SDS011;4613;48.392;9.998;2023-04-06T09:22:36;4.93;;;3.40;;
9156;SDS011;4613;48.392;9.998;2023-04-06T09:25:27;7.03;;;4.20;;
9156;SDS011;4613;48.392;9.998;2023-04-06T09:28:16;7.70;;;3.93;;
9156;SDS011;4613;48.392;9.998;2023-04-06T09:31:06;5.97;;;3.90;;
9156;SDS011;4613;48.392;9.998;2023-04-06T09:33:56;6.20;;;3.90;;
9156;SDS011;4613;48.392;9.998;2023-04-06T09:36:46;5.87;;;3.77;;
9156;SDS011;4613;48.392;9.998;2023-04-06T09:39:35;7.17;;;4.47;;
9156;SDS011;4613;48.392;9.998;2023-04-06T09:42:24;5.47;;;4.03;;
9156;SDS011;4613;48.392;9.998;2023-04-06T09:45:14;6.90;;;4.67;;
9156;SDS011;4613;48.392;9.998;2023-04-06T09:48:04;5.63;;;4.07;;
9156;SDS011;4613;48.392;9.998;2023-04-06T09:50:55;7.07;;;4.10;;
9156;SDS011;4613;48.392;9.998;2023-04-06T09:53:49;5.50;;;3.80;;
9156;SDS011;4613;48.392;9.998;2023-04-06T09:56:46;5.83;;;3.97;;
9156;SDS011;4613;48.392;9.998;2023-04-06T10:00:09;7.13;;;4.10;;
9156;SDS011;4613;48.392;9.998;2023-04-06T10:06:03;4.20;;;3.37;;
9156;SDS011;4613;48.392;9.998;2023-04-06T10:08:56;6.13;;;3.83;;
9156;SDS011;4613;48.392;9.998;2023-04-06T10:11:46;5.10;;;3.50;;
9156;SDS011;4613;48.392;9.998;2023-04-06T10:14:37;6.10;;;3.80;;
9156;SDS011;4613;48.392;9.998;2023-04-06T10:17:27;7.27;;;3.77;;
9156;SDS011;4613;48.392;9.998;2023-04-06T10:20:28;3.43;;;3.13;;
9156;SDS011;4613;48.392;9.998;2023-04-06T10:26:22;4.70;;;3.40;;
9156;SDS011;4613;48.392;9.998;2023-04-06T10:29:11;5.77;;;3.90;;
9156;SDS011;4613;48.392;9.998;2023-04-06T10:32:01;4.90;;;3.27;;
9156;SDS011;4613;48.392;9.998;2023-04-06T10:34:50;5.47;;;3.40;;
9156;SDS011;4613;48.392;9.998;2023-04-06T10:37:46;5.23;;;3.67;;
9156;SDS011;4613;48.392;9.998;2023-04-06T10:40:38;4.60;;;3.30;;
9156;SDS011;4613;48.392;9.998;2023-04-06T10:43:32;6.53;;;3.73;;
9156;SDS011;4613;48.392;9.998;2023-04-06T10:46:27;5.27;;;3.47;;
9156;SDS011;4613;48.392;9.998;2023-04-06T10:49:18;4.57;;;3.03;;
9156;SDS011;4613;48.392;9.998;2023-04-06T10:52:07;4.17;;;3.00;;
9156;SDS011;4613;48.392;9.998;2023-04-06T10:54:57;3.80;;;2.80;;
9156;SDS011;4613;48.392;9.998;2023-04-06T10:57:46;5.47;;;3.23;;
9156;SDS011;4613;48.392;9.998;2023-04-06T11:00:36;4.90;;;3.07;;
9156;SDS011;4613;48.392;9.998;2023-04-06T11:03:42;3.57;;;2.90;;
9156;SDS011;4613;48.392;9.998;2023-04-06T11:06:37;6.13;;;2.77;;
9156;SDS011;4613;48.392;9.998;2023-04-06T11:09:27;2.93;;;2.50;;
9156;SDS011;4613;48.392;9.998;2023-04-06T11:12:25;4.00;;;2.93;;
9156;SDS011;4613;48.392;9.998;2023-04-06T11:15:16;3.40;;;3.10;;
9156;SDS011;4613;48.392;9.998;2023-04-06T11:18:08;5.53;;;2.73;;
9156;SDS011;4613;48.392;9.998;2023-04-06T11:21:01;4.70;;;2.77;;
9156;SDS011;4613;48.392;9.998;2023-04-06T11:23:50;4.73;;;2.97;;
9156;SDS011;4613;48.392;9.998;2023-04-06T11:26:44;2.90;;;2.60;;
9156;SDS011;4613;48.392;9.998;2023-04-06T11:29:34;5.80;;;2.77;;
9156;SDS011;4613;48.392;9.998;2023-04-06T11:32:26;4.87;;;3.40;;
9156;SDS011;4613;48.392;9.998;2023-04-06T11:35:20;5.23;;;3.20;;
9156;SDS011;4613;48.392;9.998;2023-04-06T11:38:09;3.53;;;2.90;;
9156;SDS011;4613;48.392;9.998;2023-04-06T11:41:00;4.03;;;2.97;;
9156;SDS011;4613;48.392;9.998;2023-04-06T11:43:50;5.33;;;2.87;;
9156;SDS011;4613;48.392;9.998;2023-04-06T11:46:39;3.87;;;2.97;;
9156;SDS011;4613;48.392;9.998;2023-04-06T11:49:31;4.10;;;3.23;;
9156;SDS011;4613;48.392;9.998;2023-04-06T11:52:23;3.93;;;3.20;;
9156;SDS011;4613;48.392;9.998;2023-04-06T11:55:15;3.73;;;2.90;;
9156;SDS011;4613;48.392;9.998;2023-04-06T11:58:06;4.67;;;2.87;;
9156;SDS011;4613;48.392;9.998;2023-04-06T12:01:02;3.60;;;2.97;;
9156;SDS011;4613;48.392;9.998;2023-04-06T12:03:53;3.03;;;2.60;;
9156;SDS011;4613;48.392;9.998;2023-04-06T12:06:42;4.17;;;3.00;;
9156;SDS011;4613;48.392;9.998;2023-04-06T12:09:32;5.13;;;3.13;;
9156;SDS011;4613;48.392;9.998;2023-04-06T12:12:23;3.57;;;2.77;;
9156;SDS011;4613;48.392;9.998;2023-04-06T12:15:12;3.80;;;2.80;;
9156;SDS011;4613;48.392;9.998;2023-04-06T12:18:02;3.77;;;3.03;;
9156;SDS011;4613;48.392;9.998;2023-04-06T12:20:51;3.60;;;3.10;;
9156;SDS011;4613;48.392;9.998;2023-04-06T12:23:41;3.43;;;2.80;;
9156;SDS011;4613;48.392;9.998;2023-04-06T12:26:30;5.07;;;2.60;;
9156;SDS011;4613;48.392;9.998;2023-04-06T12:29:20;4.07;;;2.87;;
9156;SDS011;4613;48.392;9.998;2023-04-06T12:32:10;4.80;;;3.00;;
9156;SDS011;4613;48.392;9.998;2023-04-06T12:35:00;3.77;;;2.80;;
9156;SDS011;4613;48.392;9.998;2023-04-06T12:37:50;4.27;;;3.10;;
9156;SDS011;4613;48.392;9.998;2023-04-06T12:40:39;4.57;;;2.87;;
9156;SDS011;4613;48.392;9.998;2023-04-06T12:43:29;3.13;;;2.33;;
9156;SDS011;4613;48.392;9.998;2023-04-06T12:46:18;3.37;;;2.77;;
9156;SDS011;4613;48.392;9.998;2023-04-06T12:49:08;3.03;;;2.67;;
9156;SDS011;4613;48.392;9.998;2023-04-06T12:51:58;4.57;;;2.80;;
9156;SDS011;4613;48.392;9.998;2023-04-06T12:54:48;3.73;;;2.80;;
9156;SDS011;4613;48.392;9.998;2023-04-06T12:57:38;3.20;;;2.90;;
9156;SDS011;4613;48.392;9.998;2023-04-06T13:00:27;3.17;;;2.53;;
9156;SDS011;4613;48.392;9.998;2023-04-06T13:03:17;4.37;;;2.73;;
9156;SDS011;4613;48.392;9.998;2023-04-06T13:06:10;2.90;;;2.60;;
9156;SDS011;4613;48.392;9.998;2023-04-06T13:08:59;3.00;;;2.67;;
9156;SDS011;4613;48.392;9.998;2023-04-06T13:11:49;3.40;;;2.80;;
9156;SDS011;4613;48.392;9.998;2023-04-06T13:14:39;2.97;;;2.63;;
9156;SDS011;4613;48.392;9.998;2023-04-06T13:17:29;3.00;;;2.70;;
9156;SDS011;4613;48.392;9.998;2023-04-06T13:20:18;2.47;;;2.27;;
9156;SDS011;4613;48.392;9.998;2023-04-06T13:23:08;2.97;;;2.23;;
9156;SDS011;4613;48.392;9.998;2023-04-06T13:26:05;3.57;;;2.50;;
9156;SDS011;4613;48.392;9.998;2023-04-06T13:28:54;2.63;;;2.43;;
9156;SDS011;4613;48.392;9.998;2023-04-06T13:31:45;3.27;;;2.63;;
9156;SDS011;4613;48.392;9.998;2023-04-06T13:34:34;3.07;;;2.60;;
9156;SDS011;4613;48.392;9.998;2023-04-06T13:37:24;3.17;;;2.43;;
9156;SDS011;4613;48.392;9.998;2023-04-06T13:40:14;2.77;;;2.43;;
9156;SDS011;4613;48.392;9.998;2023-04-06T13:43:03;2.90;;;2.47;;
9156;SDS011;4613;48.392;9.998;2023-04-06T13:45:53;3.37;;;2.40;;
9156;SDS011;4613;48.392;9.998;2023-04-06T13:48:44;3.57;;;2.80;;
9156;SDS011;4613;48.392;9.998;2023-04-06T13:51:34;3.03;;;2.53;;
9156;SDS011;4613;48.392;9.998;2023-04-06T13:54:25;2.50;;;2.30;;
9156;SDS011;4613;48.392;9.998;2023-04-06T13:57:15;3.73;;;2.40;;
9156;SDS011;4613;48.392;9.998;2023-04-06T14:00:05;2.50;;;2.23;;
9156;SDS011;4613;48.392;9.998;2023-04-06T14:03:00;3.50;;;2.50;;
9156;SDS011;4613;48.392;9.998;2023-04-06T14:05:49;4.23;;;2.47;;
9156;SDS011;4613;48.392;9.998;2023-04-06T14:08:39;4.17;;;3.10;;
9156;SDS011;4613;48.392;9.998;2023-04-06T14:11:29;2.43;;;2.23;;
9156;SDS011;4613;48.392;9.998;2023-04-06T14:14:18;3.43;;;2.60;;
9156;SDS011;4613;48.392;9.998;2023-04-06T14:17:07;3.40;;;2.77;;
9156;SDS011;4613;48.392;9.998;2023-04-06T14:19:57;2.67;;;2.47;;
9156;SDS011;4613;48.392;9.998;2023-04-06T14:22:46;3.20;;;2.50;;
9156;SDS011;4613;48.392;9.998;2023-04-06T14:25:38;3.13;;;2.80;;
9156;SDS011;4613;48.392;9.998;2023-04-06T14:28:27;3.93;;;2.80;;
9156;SDS011;4613;48.392;9.998;2023-04-06T14:31:17;2.40;;;2.17;;
9156;SDS011;4613;48.392;9.998;2023-04-06T14:34:06;3.27;;;2.53;;
9156;SDS011;4613;48.392;9.998;2023-04-06T14:36:55;3.30;;;2.80;;
9156;SDS011;4613;48.392;9.998;2023-04-06T14:39:45;3.57;;;2.60;;
9156;SDS011;4613;48.392;9.998;2023-04-06T14:42:35;3.30;;;2.60;;
9156;SDS011;4613;48.392;9.998;2023-04-06T14:45:25;4.20;;;2.97;;
9156;SDS011;4613;48.392;9.998;2023-04-06T14:48:14;3.00;;;2.50;;
9156;SDS011;4613;48.392;9.998;2023-04-06T14:51:05;3.70;;;2.83;;
9156;SDS011;4613;48.392;9.998;2023-04-06T14:53:55;3.17;;;2.73;;
9156;SDS011;4613;48.392;9.998;2023-04-06T14:56:45;3.80;;;2.87;;
9156;SDS011;4613;48.392;9.998;2023-04-06T14:59:35;3.40;;;2.70;;
9156;SDS011;4613;48.392;9.998;2023-04-06T15:02:24;3.07;;;2.77;;
9156;SDS011;4613;48.392;9.998;2023-04-06T15:05:13;2.97;;;2.50;;
9156;SDS011;4613;48.392;9.998;2023-04-06T15:08:03;2.93;;;2.63;;
9156;SDS011;4613;48.392;9.998;2023-04-06T15:10:53;6.77;;;2.80;;
9156;SDS011;4613;48.392;9.998;2023-04-06T15:13:44;5.63;;;2.60;;
9156;SDS011;4613;48.392;9.998;2023-04-06T15:16:34;5.17;;;2.47;;
9156;SDS011;4613;48.392;9.998;2023-04-06T15:19:23;3.03;;;2.70;;
9156;SDS011;4613;48.392;9.998;2023-04-06T15:22:13;4.40;;;2.73;;
9156;SDS011;4613;48.392;9.998;2023-04-06T15:25:02;2.87;;;2.50;;
9156;SDS011;4613;48.392;9.998;2023-04-06T15:27:51;2.97;;;2.60;;
9156;SDS011;4613;48.392;9.998;2023-04-06T15:30:41;2.87;;;2.50;;
9156;SDS011;4613;48.392;9.998;2023-04-06T15:33:30;2.97;;;2.50;;
9156;SDS011;4613;48.392;9.998;2023-04-06T15:36:24;4.63;;;2.80;;
9156;SDS011;4613;48.392;9.998;2023-04-06T15:39:18;3.27;;;2.67;;
9156;SDS011;4613;48.392;9.998;2023-04-06T15:42:10;4.17;;;2.70;;
9156;SDS011;4613;48.392;9.998;2023-04-06T15:45:00;4.60;;;3.20;;
9156;SDS011;4613;48.392;9.998;2023-04-06T15:47:50;3.60;;;2.73;;
9156;SDS011;4613;48.392;9.998;2023-04-06T15:50:39;3.97;;;2.80;;
9156;SDS011;4613;48.392;9.998;2023-04-06T15:53:28;3.10;;;2.73;;
9156;SDS011;4613;48.392;9.998;2023-04-06T15:56:18;3.63;;;2.80;;
9156;SDS011;4613;48.392;9.998;2023-04-06T15:59:07;4.60;;;2.70;;
9156;SDS011;4613;48.392;9.998;2023-04-06T16:01:56;2.60;;;2.40;;
9156;SDS011;4613;48.392;9.998;2023-04-06T16:04:47;3.17;;;2.63;;
9156;SDS011;4613;48.392;9.998;2023-04-06T16:07:37;3.23;;;2.57;;
9156;SDS011;4613;48.392;9.998;2023-04-06T16:10:26;2.80;;;2.20;;
9156;SDS011;4613;48.392;9.998;2023-04-06T16:13:16;2.90;;;2.33;;
9156;SDS011;4613;48.392;9.998;2023-04-06T16:16:05;2.80;;;2.50;;
9156;SDS011;4613;48.392;9.998;2023-04-06T16:18:55;2.97;;;2.50;;
9156;SDS011;4613;48.392;9.998;2023-04-06T16:21:44;3.80;;;2.53;;
9156;SDS011;4613;48.392;9.998;2023-04-06T16:24:34;3.00;;;2.30;;
9156;SDS011;4613;48.392;9.998;2023-04-06T16:27:23;2.90;;;2.53;;
9156;SDS011;4613;48.392;9.998;2023-04-06T16:30:13;3.13;;;2.37;;
9156;SDS011;4613;48.392;9.998;2023-04-06T16:33:03;3.77;;;2.70;;
9156;SDS011;4613;48.392;9.998;2023-04-06T16:35:55;3.87;;;2.93;;
9156;SDS011;4613;48.392;9.998;2023-04-06T16:38:44;3.30;;;2.50;;
9156;SDS011;4613;48.392;9.998;2023-04-06T16:41:33;2.90;;;2.37;;
9156;SDS011;4613;48.392;9.998;2023-04-06T16:44:23;2.70;;;2.40;;
9156;SDS011;4613;48.392;9.998;2023-04-06T16:47:13;2.80;;;2.37;;
9156;SDS011;4613;48.392;9.998;2023-04-06T16:50:04;4.60;;;2.33;;
9156;SDS011;4613;48.392;9.998;2023-04-06T16:52:54;3.67;;;2.47;;
9156;SDS011;4613;48.392;9.998;2023-04-06T16:55:44;2.97;;;2.40;;
9156;SDS011;4613;48.392;9.998;2023-04-06T16:58:33;3.50;;;2.67;;
9156;SDS011;4613;48.392;9.998;2023-04-06T17:01:24;2.57;;;2.20;;
9156;SDS011;4613;48.392;9.998;2023-04-06T17:04:14;4.37;;;2.50;;
9156;SDS011;4613;48.392;9.998;2023-04-06T17:07:04;3.10;;;2.70;;
9156;SDS011;4613;48.392;9.998;2023-04-06T17:09:53;3.37;;;2.60;;
9156;SDS011;4613;48.392;9.998;2023-04-06T17:12:44;7.27;;;2.80;;
9156;SDS011;4613;48.392;9.998;2023-04-06T17:15:34;3.70;;;2.60;;
9156;SDS011;4613;48.392;9.998;2023-04-06T17:18:23;4.17;;;2.67;;
9156;SDS011;4613;48.392;9.998;2023-04-06T17:21:12;3.00;;;2.70;;
9156;SDS011;4613;48.392;9.998;2023-04-06T17:24:04;2.97;;;2.30;;
9156;SDS011;4613;48.392;9.998;2023-04-06T17:26:54;2.87;;;2.40;;
9156;SDS011;4613;48.392;9.998;2023-04-06T17:29:44;4.40;;;2.57;;
9156;SDS011;4613;48.392;9.998;2023-04-06T17:32:33;3.73;;;2.40;;
9156;SDS011;4613;48.392;9.998;2023-04-06T17:35:23;2.40;;;2.17;;
9156;SDS011;4613;48.392;9.998;2023-04-06T17:38:13;3.07;;;2.10;;
9156;SDS011;4613;48.392;9.998;2023-04-06T17:41:02;3.77;;;2.37;;
9156;SDS011;4613;48.392;9.998;2023-04-06T17:43:55;3.23;;;2.10;;
9156;SDS011;4613;48.392;9.998;2023-04-06T17:46:44;3.27;;;2.50;;
9156;SDS011;4613;48.392;9.998;2023-04-06T17:49:34;2.67;;;2.47;;
9156;SDS011;4613;48.392;9.998;2023-04-06T17:52:25;4.83;;;2.60;;
9156;SDS011;4613;48.392;9.998;2023-04-06T17:55:15;3.77;;;2.67;;